Terminal Aerodrome Forecast
Issued by NWS

Home | Current Version | Previous Version | Text Only | Print | Product List | Glossary On
Versions: 1 2 3 4 5 6 7 8 9 10 11 12 13 14 15 16 17 18 19 20 21 22 23 24 25 26 27 28 29 30
000
FTUS41 KBOX 301446 AAA
TAFFMH
TAF AMD
KFMH 301446Z 3015/3112 18004KT 4SM -RA SCT012 BKN020 OVC035
     FM301800 19005KT 2SM -RA OVC012
     FM302000 29007KT 2SM -SNRA OVC008
     FM302100 32007KT 2SM -SN OVC008
     FM302200 32008KT P6SM OVC008
     FM310000 31010G22KT P6SM OVC008
     FM310200 31013G25KT P6SM -SN OVC010=

USA.gov is the U.S. government's official web portal to all federal, state and local government web resources and services.